createdAt,value
2023-03-26T00:01:36.170Z,59.00
2023-03-26T00:04:06.755Z,58.83
2023-03-26T00:06:39.627Z,58.91
2023-03-26T00:09:13.453Z,59.02
2023-03-26T00:11:44.057Z,58.94
2023-03-26T00:14:14.093Z,58.96
2023-03-26T00:16:43.156Z,58.90
2023-03-26T00:19:12.607Z,58.98
2023-03-26T00:21:41.500Z,58.96
2023-03-26T00:24:15.119Z,59.05
2023-03-26T00:26:48.534Z,59.06
2023-03-26T00:29:16.972Z,59.05
2023-03-26T00:31:46.692Z,59.12
2023-03-26T00:34:18.390Z,58.94
2023-03-26T00:36:47.913Z,59.03
2023-03-26T00:39:17.829Z,58.96
2023-03-26T00:41:47.632Z,58.94
2023-03-26T00:44:15.872Z,58.96
2023-03-26T00:46:44.703Z,58.82
2023-03-26T00:49:14.857Z,58.77
2023-03-26T00:51:43.428Z,58.88
2023-03-26T00:54:12.752Z,58.83
2023-03-26T00:56:41.201Z,58.77
2023-03-26T00:59:11.208Z,58.88
2023-03-26T01:01:39.843Z,58.69
2023-03-26T01:04:27.819Z,58.73
2023-03-26T01:06:59.753Z,58.70
2023-03-26T01:09:33.664Z,58.66
2023-03-26T01:12:04.050Z,58.71
2023-03-26T01:14:34.085Z,58.65
2023-03-26T01:17:06.057Z,58.81
2023-03-26T01:19:40.924Z,58.87
2023-03-26T01:22:12.203Z,58.86
2023-03-26T01:24:42.722Z,58.87
2023-03-26T01:27:27.994Z,58.74
2023-03-26T01:30:01.389Z,58.71
2023-03-26T01:32:40.175Z,58.67
2023-03-26T01:35:25.979Z,58.95
2023-03-26T01:38:11.084Z,58.96
2023-03-26T01:40:47.096Z,59.06
2023-03-26T01:43:27.269Z,59.44
2023-03-26T01:45:57.083Z,59.51
2023-03-26T01:48:36.208Z,59.48
2023-03-26T01:51:05.456Z,59.65
2023-03-26T01:53:35.075Z,59.46
2023-03-26T01:56:13.325Z,59.53
2023-03-26T01:58:54.041Z,59.57
2023-03-26T02:01:30.314Z,59.74
2023-03-26T02:04:06.795Z,59.61
2023-03-26T02:06:42.679Z,59.65
2023-03-26T02:09:14.780Z,59.77
2023-03-26T02:11:46.820Z,59.73
2023-03-26T02:14:16.409Z,59.79
2023-03-26T02:16:46.986Z,59.75
2023-03-26T02:19:21.526Z,59.66
2023-03-26T02:21:59.801Z,59.70
2023-03-26T02:24:29.877Z,59.35
2023-03-26T02:27:02.274Z,59.44
2023-03-26T02:29:30.871Z,59.44
2023-03-26T02:31:59.510Z,59.37
2023-03-26T02:34:27.840Z,59.34
2023-03-26T02:36:57.238Z,59.49
2023-03-26T02:39:26.724Z,59.44
2023-03-26T02:42:03.027Z,59.35
2023-03-26T02:44:35.185Z,59.28
2023-03-26T02:47:03.436Z,59.19
2023-03-26T02:49:35.036Z,59.07
2023-03-26T02:52:06.667Z,59.17
2023-03-26T02:54:37.116Z,59.28
2023-03-26T02:57:09.828Z,59.25
2023-03-26T02:59:58.422Z,59.22
2023-03-26T03:02:39.866Z,59.06
2023-03-26T03:05:26.710Z,58.96
2023-03-26T03:08:19.418Z,58.77
2023-03-26T03:11:02.659Z,58.80
2023-03-26T03:14:02.034Z,58.71
2023-03-26T03:16:32.876Z,58.58
2023-03-26T03:19:06.820Z,58.56
2023-03-26T03:21:38.423Z,58.68
2023-03-26T03:24:08.532Z,58.70
2023-03-26T03:26:45.710Z,58.49
2023-03-26T03:29:34.079Z,58.51
2023-03-26T03:32:25.403Z,58.51
2023-03-26T03:34:57.624Z,58.31
2023-03-26T03:37:27.058Z,58.41
2023-03-26T03:39:56.936Z,58.65
2023-03-26T03:42:28.489Z,58.52
2023-03-26T03:45:01.985Z,58.66
2023-03-26T03:47:48.999Z,58.53
2023-03-26T03:50:23.210Z,58.47
2023-03-26T03:53:18.584Z,58.58
2023-03-26T03:55:54.171Z,58.74
2023-03-26T03:58:28.409Z,58.89
2023-03-26T04:01:04.603Z,58.82
2023-03-26T04:04:05.758Z,58.79
2023-03-26T04:07:00.265Z,58.87
2023-03-26T04:09:35.916Z,58.97
2023-03-26T04:12:12.055Z,58.98
2023-03-26T04:15:00.309Z,59.03
2023-03-26T04:17:30.624Z,59.06
2023-03-26T04:20:05.629Z,58.87
2023-03-26T04:22:34.789Z,58.83
2023-03-26T04:25:06.061Z,59.02
2023-03-26T04:27:44.752Z,58.89
2023-03-26T04:30:21.640Z,59.04
2023-03-26T04:33:07.438Z,58.93
2023-03-26T04:35:41.826Z,58.88
2023-03-26T04:38:12.917Z,59.10
2023-03-26T04:40:47.370Z,58.99
2023-03-26T04:43:35.597Z,59.03
2023-03-26T04:46:21.900Z,58.99
2023-03-26T04:48:56.870Z,58.89
2023-03-26T04:51:35.064Z,58.96
2023-03-26T04:54:04.173Z,58.86
2023-03-26T04:56:51.317Z,59.00
2023-03-26T04:59:35.124Z,59.00
2023-03-26T05:02:08.630Z,59.11
2023-03-26T05:04:50.102Z,59.05
2023-03-26T05:07:22.433Z,58.96
2023-03-26T05:09:54.264Z,59.24
2023-03-26T05:12:47.703Z,59.35
2023-03-26T05:15:20.345Z,59.51
2023-03-26T05:18:08.883Z,59.35
2023-03-26T05:20:53.199Z,59.37
2023-03-26T05:23:21.797Z,59.51
2023-03-26T05:25:55.998Z,59.42
2023-03-26T05:28:27.786Z,59.52
2023-03-26T05:31:02.654Z,59.41
2023-03-26T05:33:36.230Z,59.62
2023-03-26T05:36:15.372Z,59.61
2023-03-26T05:38:55.156Z,59.71
2023-03-26T05:41:54.988Z,59.54
2023-03-26T05:44:29.792Z,59.74
2023-03-26T05:47:00.353Z,59.55
2023-03-26T05:49:29.898Z,59.61
2023-03-26T05:51:59.667Z,59.55
2023-03-26T05:54:50.867Z,59.57
2023-03-26T05:57:39.192Z,59.63
2023-03-26T06:00:39.763Z,59.09
2023-03-26T06:03:12.747Z,59.25
2023-03-26T06:05:44.418Z,58.99
2023-03-26T06:08:34.033Z,58.99
2023-03-26T06:11:04.532Z,58.93
2023-03-26T06:13:37.075Z,58.91
2023-03-26T06:16:06.058Z,59.03
2023-03-26T06:18:41.634Z,58.82
2023-03-26T06:21:25.748Z,58.78
2023-03-26T06:24:00.358Z,59.90
2023-03-26T06:26:48.140Z,60.95
2023-03-26T06:29:24.681Z,60.83
2023-03-26T06:32:20.522Z,61.59
2023-03-26T06:35:18.409Z,61.63
2023-03-26T06:37:47.140Z,61.44
2023-03-26T06:40:17.300Z,61.41
2023-03-26T06:43:21.575Z,61.21
2023-03-26T06:46:05.525Z,60.83
2023-03-26T06:48:53.478Z,61.27
2023-03-26T06:51:57.517Z,61.09
2023-03-26T06:54:42.279Z,61.06
2023-03-26T06:57:43.733Z,60.81
2023-03-26T07:00:13.586Z,60.15
2023-03-26T07:03:04.894Z,60.70
2023-03-26T07:05:53.324Z,61.06
2023-03-26T07:08:40.366Z,61.28
2023-03-26T07:11:27.314Z,61.41
2023-03-26T07:14:15.586Z,61.35
2023-03-26T07:16:54.859Z,61.54
2023-03-26T07:19:36.339Z,61.57
2023-03-26T07:22:05.414Z,61.48
2023-03-26T07:24:53.233Z,62.09
2023-03-26T07:28:01.209Z,62.66
2023-03-26T07:31:05.396Z,63.16
2023-03-26T07:33:50.207Z,63.04
2023-03-26T07:36:45.452Z,62.76
2023-03-26T07:39:47.632Z,62.84
2023-03-26T07:42:54.941Z,63.29
2023-03-26T07:45:49.757Z,63.36
2023-03-26T07:48:25.576Z,63.34
2023-03-26T07:51:18.733Z,63.13
2023-03-26T07:54:06.689Z,63.59
2023-03-26T07:56:50.484Z,64.23
2023-03-26T07:59:44.685Z,63.37
2023-03-26T08:03:03.145Z,62.96
2023-03-26T08:06:04.826Z,63.77
2023-03-26T08:09:14.571Z,63.89
2023-03-26T08:12:16.865Z,63.47
2023-03-26T08:14:54.156Z,63.06
2023-03-26T08:17:31.262Z,63.15
2023-03-26T08:20:11.010Z,63.20
2023-03-26T08:22:43.332Z,63.38
2023-03-26T08:25:38.181Z,62.53
2023-03-26T08:28:19.978Z,62.99
2023-03-26T08:30:48.607Z,63.40
2023-03-26T08:33:19.678Z,62.95
2023-03-26T08:35:48.937Z,62.48
2023-03-26T08:38:21.440Z,63.12
2023-03-26T08:41:28.854Z,63.44
2023-03-26T08:44:36.636Z,64.14
2023-03-26T08:47:52.792Z,63.35
2023-03-26T08:50:49.504Z,63.34
2023-03-26T08:53:40.887Z,63.53
2023-03-26T08:56:21.712Z,63.56
2023-03-26T08:59:20.867Z,63.85
2023-03-26T09:02:11.992Z,62.95
2023-03-26T09:05:19.894Z,62.07
2023-03-26T09:08:18.954Z,61.52
2023-03-26T09:10:54.862Z,63.17
2023-03-26T09:13:51.819Z,63.86
2023-03-26T09:16:40.560Z,63.34
2023-03-26T09:19:51.680Z,63.15
2023-03-26T09:23:02.545Z,62.92
2023-03-26T09:26:05.042Z,63.40
2023-03-26T09:29:15.030Z,63.24
2023-03-26T09:32:31.285Z,62.37
2023-03-26T09:35:16.415Z,62.95
2023-03-26T09:37:59.502Z,63.42
2023-03-26T09:40:38.792Z,63.07
2023-03-26T09:43:37.423Z,62.66
2023-03-26T09:46:19.197Z,61.47
2023-03-26T09:49:21.523Z,62.73
2023-03-26T09:52:05.048Z,61.23
2023-03-26T09:55:15.579Z,60.85
2023-03-26T09:58:09.225Z,61.10
2023-03-26T10:00:46.774Z,60.88
2023-03-26T10:03:36.080Z,59.90
2023-03-26T10:06:16.180Z,59.58
2023-03-26T10:08:59.715Z,59.62
2023-03-26T10:11:37.466Z,58.99
2023-03-26T10:14:15.087Z,58.56
2023-03-26T10:16:53.673Z,58.61
2023-03-26T10:19:54.458Z,59.20
2023-03-26T10:22:37.672Z,58.41
2023-03-26T10:25:39.864Z,58.80
2023-03-26T10:28:26.543Z,58.29
2023-03-26T10:31:15.265Z,59.31
2023-03-26T10:33:55.392Z,58.93
2023-03-26T10:36:31.324Z,58.32
2023-03-26T10:39:11.480Z,58.93
2023-03-26T10:42:16.806Z,59.29
2023-03-26T10:45:02.403Z,59.90
2023-03-26T10:47:56.959Z,60.66
2023-03-26T10:50:46.714Z,60.79
2023-03-26T10:53:28.209Z,61.66
2023-03-26T10:56:03.970Z,61.65
2023-03-26T10:58:48.291Z,61.34
2023-03-26T11:01:29.165Z,60.70
2023-03-26T11:04:00.045Z,60.56
2023-03-26T11:06:38.795Z,60.00
2023-03-26T11:09:27.177Z,59.73
2023-03-26T11:12:25.740Z,58.52
2023-03-26T11:15:02.784Z,58.06
2023-03-26T11:17:41.819Z,58.45
2023-03-26T11:20:17.849Z,58.32
2023-03-26T11:22:57.830Z,58.86
2023-03-26T11:25:45.055Z,58.73
2023-03-26T11:28:36.149Z,58.69
2023-03-26T11:31:20.412Z,58.22
2023-03-26T11:33:54.781Z,58.54
2023-03-26T11:36:30.093Z,57.08
2023-03-26T11:39:00.754Z,57.50
2023-03-26T11:41:33.268Z,57.10
2023-03-26T11:44:20.526Z,57.49
2023-03-26T11:46:53.683Z,57.17
2023-03-26T11:49:24.021Z,57.72
2023-03-26T11:51:52.391Z,57.15
2023-03-26T11:54:21.121Z,57.79
2023-03-26T11:57:05.775Z,57.24
2023-03-26T11:59:49.041Z,57.35
2023-03-26T12:02:32.763Z,57.90
2023-03-26T12:05:19.684Z,57.27
2023-03-26T12:07:53.097Z,57.22
2023-03-26T12:10:40.456Z,58.19
2023-03-26T12:13:34.774Z,58.18
2023-03-26T12:16:10.723Z,57.51
2023-03-26T12:18:41.757Z,57.59
2023-03-26T12:21:12.716Z,58.24
2023-03-26T12:24:00.329Z,56.97
2023-03-26T12:26:37.048Z,57.48
2023-03-26T12:29:13.565Z,57.38
2023-03-26T12:31:55.613Z,57.69
2023-03-26T12:34:34.794Z,57.64
2023-03-26T12:37:04.508Z,57.86
2023-03-26T12:40:09.418Z,57.98
2023-03-26T12:44:44.347Z,57.81
2023-03-26T12:45:17.676Z,58.87
2023-03-26T12:47:56.896Z,59.09
2023-03-26T12:50:43.570Z,57.35
2023-03-26T12:53:26.506Z,58.06
2023-03-26T12:56:02.260Z,60.05
2023-03-26T12:58:51.299Z,57.42
2023-03-26T13:01:28.719Z,58.06
2023-03-26T13:04:14.500Z,58.04
2023-03-26T13:06:59.417Z,58.79
2023-03-26T13:09:55.345Z,57.55
2023-03-26T13:12:35.539Z,58.07
2023-03-26T13:15:19.059Z,57.03
2023-03-26T13:17:58.477Z,58.25
2023-03-26T13:20:33.390Z,58.29
2023-03-26T13:23:10.609Z,58.09
2023-03-26T13:25:46.150Z,57.65
2023-03-26T13:28:24.937Z,57.77
2023-03-26T13:31:00.101Z,58.16
2023-03-26T13:33:39.731Z,57.62
2023-03-26T13:36:22.405Z,57.42
2023-03-26T13:39:08.191Z,57.49
2023-03-26T13:41:58.467Z,58.56
2023-03-26T13:44:38.739Z,57.67
2023-03-26T13:47:12.287Z,57.50
2023-03-26T13:49:44.570Z,57.88
2023-03-26T13:52:15.365Z,58.48
2023-03-26T13:54:50.966Z,58.26
2023-03-26T13:57:24.875Z,58.26
2023-03-26T13:59:59.024Z,57.71
2023-03-26T14:02:34.174Z,58.14
2023-03-26T14:05:07.728Z,58.77
2023-03-26T14:07:41.988Z,58.03
2023-03-26T14:10:16.229Z,57.97
2023-03-26T14:12:55.227Z,58.35
2023-03-26T14:15:28.146Z,58.61
2023-03-26T14:18:06.092Z,58.14
2023-03-26T14:20:54.741Z,58.30
2023-03-26T14:24:06.623Z,57.95
2023-03-26T14:27:04.134Z,58.29
2023-03-26T14:29:56.974Z,58.94
2023-03-26T14:32:39.097Z,59.71
2023-03-26T14:35:20.192Z,59.78
2023-03-26T14:38:15.068Z,59.75
2023-03-26T14:40:59.194Z,59.81
2023-03-26T14:43:53.361Z,59.57
2023-03-26T14:46:55.717Z,59.05
2023-03-26T14:49:39.397Z,58.48
2023-03-26T14:52:15.152Z,58.41
2023-03-26T14:54:46.728Z,57.96
2023-03-26T14:57:54.369Z,57.71
2023-03-26T15:00:42.002Z,57.68
2023-03-26T15:04:00.761Z,57.39
2023-03-26T15:07:00.847Z,57.51
2023-03-26T15:10:23.275Z,57.29
2023-03-26T15:13:03.716Z,57.86
2023-03-26T15:16:07.579Z,57.59
2023-03-26T15:19:12.521Z,57.53
2023-03-26T15:22:28.636Z,58.11
2023-03-26T15:25:36.475Z,58.04
2023-03-26T15:28:38.313Z,58.07
2023-03-26T15:31:51.232Z,57.95
2023-03-26T15:34:55.559Z,58.19
2023-03-26T15:37:48.020Z,58.59
2023-03-26T15:40:30.268Z,58.83
2023-03-26T15:43:07.813Z,58.83
2023-03-26T15:45:41.557Z,59.47
2023-03-26T15:48:34.279Z,59.74
2023-03-26T15:51:30.067Z,60.48
2023-03-26T15:54:06.348Z,59.77
2023-03-26T15:57:07.241Z,61.60
2023-03-26T15:59:59.275Z,60.96
2023-03-26T16:02:36.472Z,61.85
2023-03-26T16:05:28.409Z,61.99
2023-03-26T16:08:07.715Z,62.95
2023-03-26T16:10:41.137Z,62.92
2023-03-26T16:13:31.866Z,62.95
2023-03-26T16:16:33.035Z,62.34
2023-03-26T16:19:50.124Z,63.11
2023-03-26T16:22:42.686Z,63.36
2023-03-26T16:25:30.544Z,63.37
2023-03-26T16:28:28.555Z,63.15
2023-03-26T16:31:36.932Z,63.18
2023-03-26T16:34:33.234Z,62.61
2023-03-26T16:37:10.282Z,62.27
2023-03-26T16:39:43.662Z,62.42
2023-03-26T16:42:37.464Z,62.41
2023-03-26T16:45:20.568Z,63.05
2023-03-26T16:47:56.599Z,63.13
2023-03-26T16:50:31.189Z,62.50
2023-03-26T16:53:09.784Z,62.48
2023-03-26T16:55:43.821Z,62.70
2023-03-26T16:58:23.902Z,62.69
2023-03-26T17:01:04.573Z,62.97
2023-03-26T17:03:46.078Z,62.80
2023-03-26T17:06:34.673Z,63.34
2023-03-26T17:09:15.401Z,63.12
2023-03-26T17:11:55.241Z,63.44
2023-03-26T17:14:36.322Z,63.66
2023-03-26T17:17:21.894Z,63.61
2023-03-26T17:19:58.640Z,65.11
2023-03-26T17:22:40.003Z,63.98
2023-03-26T17:25:33.549Z,63.77
2023-03-26T17:28:23.831Z,64.63
2023-03-26T17:31:13.991Z,63.89
2023-03-26T17:33:43.346Z,63.94
2023-03-26T17:36:40.910Z,64.12
2023-03-26T17:39:46.944Z,64.69
2023-03-26T17:42:20.290Z,64.86
2023-03-26T17:44:51.545Z,64.36
2023-03-26T17:47:32.503Z,64.53
2023-03-26T17:50:06.452Z,64.38
2023-03-26T17:52:54.797Z,64.06
2023-03-26T17:55:30.509Z,64.18
2023-03-26T17:58:00.183Z,64.56
2023-03-26T18:00:32.614Z,64.60
2023-03-26T18:03:07.747Z,64.57
2023-03-26T18:05:40.017Z,64.40
2023-03-26T18:08:41.785Z,64.39
2023-03-26T18:12:03.037Z,65.40
2023-03-26T18:15:01.610Z,64.72
2023-03-26T18:17:39.779Z,65.16
2023-03-26T18:20:22.579Z,65.02
2023-03-26T18:22:52.038Z,65.50
2023-03-26T18:25:25.141Z,65.17
2023-03-26T18:27:53.788Z,65.57
2023-03-26T18:30:23.506Z,65.34
2023-03-26T18:33:00.168Z,65.27
2023-03-26T18:35:40.471Z,65.84
2023-03-26T18:38:16.998Z,66.00
2023-03-26T18:40:46.552Z,66.05
2023-03-26T18:43:28.636Z,65.72
2023-03-26T18:46:00.937Z,65.83
2023-03-26T18:48:30.384Z,66.33
2023-03-26T18:51:04.821Z,66.59
2023-03-26T18:53:39.662Z,65.10
2023-03-26T18:56:26.048Z,66.64
2023-03-26T18:58:57.627Z,65.83
2023-03-26T19:01:30.695Z,66.16
2023-03-26T19:04:02.231Z,66.27
2023-03-26T19:06:36.012Z,67.10
2023-03-26T19:09:16.281Z,65.82
2023-03-26T19:11:49.876Z,66.05
2023-03-26T19:14:19.854Z,66.65
2023-03-26T19:16:56.305Z,68.49
2023-03-26T19:19:29.541Z,68.08
2023-03-26T19:21:59.786Z,68.39
2023-03-26T19:24:28.702Z,67.62
2023-03-26T19:26:57.489Z,67.91
2023-03-26T19:29:28.345Z,67.05
2023-03-26T19:32:03.513Z,67.23
2023-03-26T19:34:34.906Z,66.35
2023-03-26T19:37:17.941Z,66.87
2023-03-26T19:39:49.098Z,66.28
2023-03-26T19:42:21.190Z,66.33
2023-03-26T19:44:51.179Z,66.76
2023-03-26T19:50:26.693Z,67.19
2023-03-26T19:51:18.356Z,66.70
2023-03-26T19:53:19.060Z,66.43
2023-03-26T19:55:58.868Z,66.81
2023-03-26T19:58:28.307Z,67.07
2023-03-26T20:00:57.146Z,66.52
2023-03-26T20:03:29.486Z,66.94
2023-03-26T20:05:58.144Z,66.60
2023-03-26T20:08:27.973Z,66.17
2023-03-26T20:10:58.042Z,66.29
2023-03-26T20:13:27.175Z,66.30
2023-03-26T20:16:05.913Z,67.14
2023-03-26T20:18:35.260Z,66.47
2023-03-26T20:21:03.653Z,66.94
2023-03-26T20:23:33.608Z,66.34
2023-03-26T20:26:02.016Z,67.12
2023-03-26T20:28:35.274Z,67.14
2023-03-26T20:31:08.295Z,67.13
2023-03-26T20:33:36.722Z,67.39
2023-03-26T20:36:06.613Z,66.86
2023-03-26T20:38:39.590Z,66.74
2023-03-26T20:41:11.271Z,67.09
2023-03-26T20:43:39.641Z,67.83
2023-03-26T20:46:07.950Z,66.91
2023-03-26T20:48:36.356Z,67.14
2023-03-26T20:51:04.999Z,67.27
2023-03-26T20:53:33.482Z,67.29
2023-03-26T20:56:03.911Z,67.24
2023-03-26T20:58:32.505Z,67.16
2023-03-26T21:01:02.471Z,67.30
2023-03-26T21:03:30.982Z,67.20
2023-03-26T21:06:01.639Z,68.28
2023-03-26T21:08:35.383Z,68.42
2023-03-26T21:11:15.484Z,68.29
2023-03-26T21:14:01.992Z,67.88
2023-03-26T21:16:30.881Z,68.46
2023-03-26T21:18:59.845Z,67.68
2023-03-26T21:21:42.014Z,67.88
2023-03-26T21:24:16.138Z,67.71
2023-03-26T21:26:53.150Z,67.73
2023-03-26T21:29:22.015Z,68.07
2023-03-26T21:31:52.800Z,67.80
2023-03-26T21:34:23.411Z,67.79
2023-03-26T21:36:52.657Z,67.82
2023-03-26T21:39:21.702Z,67.88
2023-03-26T21:42:05.050Z,67.81
2023-03-26T21:44:35.118Z,67.97
2023-03-26T21:47:03.892Z,67.27
2023-03-26T21:49:32.735Z,67.77
2023-03-26T21:52:01.490Z,67.96
2023-03-26T21:54:31.918Z,68.04
2023-03-26T21:57:18.459Z,67.81
2023-03-26T21:59:53.074Z,67.97
2023-03-26T22:02:28.019Z,67.65
2023-03-26T22:05:01.924Z,68.01
2023-03-26T22:07:36.402Z,68.30
2023-03-26T22:10:05.142Z,67.50
2023-03-26T22:12:34.807Z,67.85
2023-03-26T22:15:04.695Z,67.98
2023-03-26T22:17:33.125Z,67.34
2023-03-26T22:20:07.624Z,67.45
2023-03-26T22:22:35.904Z,68.15
2023-03-26T22:25:04.396Z,67.37
2023-03-26T22:27:34.674Z,67.79
2023-03-26T22:30:12.905Z,67.36
2023-03-26T22:32:41.441Z,67.70
2023-03-26T22:35:10.406Z,67.48
2023-03-26T22:37:39.186Z,67.14
2023-03-26T22:40:12.984Z,67.75
2023-03-26T22:42:43.093Z,67.35
2023-03-26T22:45:12.672Z,67.67
2023-03-26T22:47:41.176Z,67.92
2023-03-26T22:50:10.788Z,67.25
2023-03-26T22:52:40.681Z,66.80
2023-03-26T22:55:11.138Z,66.20
2023-03-26T22:57:39.842Z,66.23
2023-03-26T23:00:16.382Z,65.85
2023-03-26T23:02:45.932Z,66.17
2023-03-26T23:05:14.583Z,65.76
2023-03-26T23:07:43.573Z,66.17
2023-03-26T23:10:12.258Z,64.91
2023-03-26T23:12:41.388Z,65.53
2023-03-26T23:15:12.280Z,65.49
2023-03-26T23:17:40.780Z,65.24
2023-03-26T23:20:15.012Z,64.66
2023-03-26T23:22:43.767Z,64.86
2023-03-26T23:25:12.467Z,63.97
2023-03-26T23:27:41.477Z,64.05
2023-03-26T23:30:13.420Z,63.72
2023-03-26T23:32:41.711Z,63.56
2023-03-26T23:35:11.253Z,63.87
2023-03-26T23:37:42.530Z,63.56
2023-03-26T23:40:14.070Z,63.85
2023-03-26T23:42:42.492Z,63.69
2023-03-26T23:45:13.349Z,63.25
2023-03-26T23:47:42.253Z,63.37
2023-03-26T23:50:11.695Z,63.36
2023-03-26T23:52:40.016Z,63.34
2023-03-26T23:55:08.891Z,63.22
2023-03-26T23:57:37.176Z,63.46
